ROMMA est une association bénévole à but non lucratif. Votre soutien est indispensable : ADHERER à ROMMA ou FAIRE un DON

Montélimar - (26, Drôme)

Basse vallée du Rhône (88 m)   Longitude: 04° 45' E   Latitude: 44° 32' N Station partenaire n°164
 

Détail journalier du     <<     >>

Température Precipitation Humidité Pression Vent Dir Rafale Dir. rafale Ensol.
Heure (°C) (mm) (%) (hPa) (km/h) (km/h) (min)
01:00 18.704210204---24N0
02:00 17.904510203---26E0
03:00 17.204710201---13ENE0
04:00 16.605010201---21ENE0
05:00 16.805110202---19ENE0
06:00 16.105210204NE24NE0
07:00 15.00561020010NE0
08:00 14.60581020011NE0
09:00 14.80591021011ENE45
10:00 17.305210212---18NE54
11:00 19.105110211---15N56
12:00 21.104810211---11NE60
13:00 23.6047102003NE60
14:00 25.505210192---23SO60
15:00 26.805010198SO23S53
16:00 27.404710188S21S60
17:00 27.904710179SSE24S41
18:00 27.704810178SO26S20
19:00 26.605110174---19SSO0
20:00 24.905710173---13SO0
21:00 23.5063101800---0
22:00 22.806410183---16SO0
23:00 22.206510191---13SO0
minuit 21.7067101800---0

Graphique du 20-09-2019

 

Serveur OMMA